sensor_id;sensor_type;location;lat;lon;timestamp;pressure;altitude;pressure_sealevel;temperature;humidity
66945;BME280;53853;51.982;5.928;2022-12-07T00:00:22;101669.09;;;6.24;79.90
66945;BME280;53853;51.982;5.928;2022-12-07T00:02:55;101672.78;;;6.22;79.83
66945;BME280;53853;51.982;5.928;2022-12-07T00:05:25;101666.00;;;6.18;79.57
66945;BME280;53853;51.982;5.928;2022-12-07T00:07:55;101668.94;;;6.13;79.51
66945;BME280;53853;51.982;5.928;2022-12-07T00:10:25;101668.31;;;6.09;79.69
66945;BME280;53853;51.982;5.928;2022-12-07T00:12:54;101668.59;;;6.05;79.26
66945;BME280;53853;51.982;5.928;2022-12-07T00:15:24;101671.66;;;5.98;79.30
66945;BME280;53853;51.982;5.928;2022-12-07T00:17:57;101665.69;;;5.95;79.11
66945;BME280;53853;51.982;5.928;2022-12-07T00:20:27;101665.00;;;5.91;79.12
66945;BME280;53853;51.982;5.928;2022-12-07T00:22:57;101675.88;;;5.87;79.43
66945;BME280;53853;51.982;5.928;2022-12-07T00:25:27;101662.09;;;5.81;79.22
66945;BME280;53853;51.982;5.928;2022-12-07T00:27:57;101663.06;;;5.80;79.13
66945;BME280;53853;51.982;5.928;2022-12-07T00:30:27;101671.19;;;5.77;79.09
66945;BME280;53853;51.982;5.928;2022-12-07T00:33:00;101667.78;;;5.75;79.06
66945;BME280;53853;51.982;5.928;2022-12-07T00:35:30;101664.59;;;5.70;79.32
66945;BME280;53853;51.982;5.928;2022-12-07T00:38:00;101656.84;;;5.67;79.38
66945;BME280;53853;51.982;5.928;2022-12-07T00:40:29;101653.47;;;5.65;79.33
66945;BME280;53853;51.982;5.928;2022-12-07T00:42:59;101646.47;;;5.64;79.32
66945;BME280;53853;51.982;5.928;2022-12-07T00:45:29;101654.59;;;5.61;79.58
66945;BME280;53853;51.982;5.928;2022-12-07T00:48:02;101645.09;;;5.58;79.65
66945;BME280;53853;51.982;5.928;2022-12-07T00:50:32;101644.59;;;5.52;79.58
66945;BME280;53853;51.982;5.928;2022-12-07T00:53:02;101647.53;;;5.47;79.72
66945;BME280;53853;51.982;5.928;2022-12-07T00:55:33;101640.94;;;5.40;80.15
66945;BME280;53853;51.982;5.928;2022-12-07T00:58:03;101639.25;;;5.39;80.37
66945;BME280;53853;51.982;5.928;2022-12-07T01:00:34;101641.97;;;5.37;80.40
66945;BME280;53853;51.982;5.928;2022-12-07T01:03:08;101636.03;;;5.34;80.67
66945;BME280;53853;51.982;5.928;2022-12-07T01:05:39;101642.34;;;5.31;80.89
66945;BME280;53853;51.982;5.928;2022-12-07T01:08:09;101638.03;;;5.30;80.69
66945;BME280;53853;51.982;5.928;2022-12-07T01:10:39;101638.03;;;5.30;80.64
66945;BME280;53853;51.982;5.928;2022-12-07T01:13:09;101636.44;;;5.28;80.63
66945;BME280;53853;51.982;5.928;2022-12-07T01:15:40;101639.25;;;5.24;80.97
66945;BME280;53853;51.982;5.928;2022-12-07T01:18:12;101638.59;;;5.21;80.73
66945;BME280;53853;51.982;5.928;2022-12-07T01:20:42;101641.53;;;5.16;80.77
66945;BME280;53853;51.982;5.928;2022-12-07T01:23:12;101643.53;;;5.13;80.72
66945;BME280;53853;51.982;5.928;2022-12-07T01:25:42;101639.25;;;5.10;80.74
66945;BME280;53853;51.982;5.928;2022-12-07T01:28:14;101646.34;;;5.10;80.83
66945;BME280;53853;51.982;5.928;2022-12-07T01:30:44;101655.31;;;5.07;80.82
66945;BME280;53853;51.982;5.928;2022-12-07T01:33:17;101649.28;;;5.05;81.00
66945;BME280;53853;51.982;5.928;2022-12-07T01:35:47;101650.13;;;5.05;80.92
66945;BME280;53853;51.982;5.928;2022-12-07T01:38:16;101646.44;;;5.08;80.86
66945;BME280;53853;51.982;5.928;2022-12-07T01:40:54;101647.38;;;5.07;80.81
66945;BME280;53853;51.982;5.928;2022-12-07T01:43:25;101653.53;;;5.07;80.69
66945;BME280;53853;51.982;5.928;2022-12-07T01:45:56;101648.25;;;5.07;80.95
66945;BME280;53853;51.982;5.928;2022-12-07T01:48:32;101643.63;;;5.11;80.55
66945;BME280;53853;51.982;5.928;2022-12-07T01:51:06;101641.81;;;5.12;80.86
66945;BME280;53853;51.982;5.928;2022-12-07T01:53:40;101638.44;;;5.10;80.87
66945;BME280;53853;51.982;5.928;2022-12-07T01:56:15;101642.19;;;5.05;80.75
66945;BME280;53853;51.982;5.928;2022-12-07T01:58:46;101641.34;;;5.05;80.43
66945;BME280;53853;51.982;5.928;2022-12-07T02:01:17;101637.28;;;4.99;80.71
66945;BME280;53853;51.982;5.928;2022-12-07T02:03:50;101642.75;;;4.96;80.92
66945;BME280;53853;51.982;5.928;2022-12-07T02:06:22;101643.91;;;4.92;80.65
66945;BME280;53853;51.982;5.928;2022-12-07T02:08:54;101638.06;;;4.87;80.80
66945;BME280;53853;51.982;5.928;2022-12-07T02:11:24;101634.63;;;4.85;80.76
66945;BME280;53853;51.982;5.928;2022-12-07T02:13:54;101634.81;;;4.82;80.70
66945;BME280;53853;51.982;5.928;2022-12-07T02:16:34;101630.50;;;4.81;80.87
66945;BME280;53853;51.982;5.928;2022-12-07T02:19:39;101627.16;;;4.77;80.69
66945;BME280;53853;51.982;5.928;2022-12-07T02:22:42;101634.53;;;4.72;80.84
66945;BME280;53853;51.982;5.928;2022-12-07T02:25:27;101632.94;;;4.69;80.79
66945;BME280;53853;51.982;5.928;2022-12-07T02:28:04;101637.25;;;4.70;80.49
66945;BME280;53853;51.982;5.928;2022-12-07T02:30:42;101632.72;;;4.72;80.43
66945;BME280;53853;51.982;5.928;2022-12-07T02:33:17;101638.78;;;4.75;80.66
66945;BME280;53853;51.982;5.928;2022-12-07T02:35:53;101638.59;;;4.78;80.31
66945;BME280;53853;51.982;5.928;2022-12-07T02:38:29;101644.72;;;4.78;80.31
66945;BME280;53853;51.982;5.928;2022-12-07T02:41:06;101642.91;;;4.79;80.34
66945;BME280;53853;51.982;5.928;2022-12-07T02:43:39;101632.25;;;4.80;80.28
66945;BME280;53853;51.982;5.928;2022-12-07T02:46:14;101635.78;;;4.81;80.31
66945;BME280;53853;51.982;5.928;2022-12-07T02:48:44;101636.06;;;4.76;80.13
66945;BME280;53853;51.982;5.928;2022-12-07T02:51:33;101636.13;;;4.75;80.13
66945;BME280;53853;51.982;5.928;2022-12-07T02:54:07;101627.44;;;4.72;80.52
66945;BME280;53853;51.982;5.928;2022-12-07T02:56:39;101626.59;;;4.72;80.74
66945;BME280;53853;51.982;5.928;2022-12-07T02:59:14;101626.69;;;4.70;81.02
66945;BME280;53853;51.982;5.928;2022-12-07T03:01:50;101627.34;;;4.74;80.45
66945;BME280;53853;51.982;5.928;2022-12-07T03:04:28;101635.00;;;4.79;80.34
66945;BME280;53853;51.982;5.928;2022-12-07T03:07:03;101632.34;;;4.79;80.21
66945;BME280;53853;51.982;5.928;2022-12-07T03:09:36;101634.81;;;4.82;80.48
66945;BME280;53853;51.982;5.928;2022-12-07T03:12:08;101636.91;;;4.91;80.19
66945;BME280;53853;51.982;5.928;2022-12-07T03:14:41;101639.34;;;4.94;80.14
66945;BME280;53853;51.982;5.928;2022-12-07T03:17:15;101638.44;;;4.95;79.94
66945;BME280;53853;51.982;5.928;2022-12-07T03:19:45;101632.09;;;4.98;79.89
66945;BME280;53853;51.982;5.928;2022-12-07T03:22:15;101639.72;;;5.02;79.86
66945;BME280;53853;51.982;5.928;2022-12-07T03:24:47;101643.91;;;5.06;79.65
66945;BME280;53853;51.982;5.928;2022-12-07T03:27:19;101638.44;;;5.10;79.64
66945;BME280;53853;51.982;5.928;2022-12-07T03:29:51;101634.81;;;5.11;79.82
66945;BME280;53853;51.982;5.928;2022-12-07T03:32:27;101631.06;;;5.15;79.78
66945;BME280;53853;51.982;5.928;2022-12-07T03:35:00;101627.28;;;5.19;79.73
66945;BME280;53853;51.982;5.928;2022-12-07T03:37:31;101622.66;;;5.22;79.66
66945;BME280;53853;51.982;5.928;2022-12-07T03:40:05;101619.09;;;5.23;79.54
66945;BME280;53853;51.982;5.928;2022-12-07T03:42:36;101612.72;;;5.26;79.60
66945;BME280;53853;51.982;5.928;2022-12-07T03:45:06;101610.75;;;5.30;79.53
66945;BME280;53853;51.982;5.928;2022-12-07T03:47:41;101611.22;;;5.36;79.46
66945;BME280;53853;51.982;5.928;2022-12-07T03:50:13;101606.03;;;5.35;79.80
66945;BME280;53853;51.982;5.928;2022-12-07T03:52:45;101619.72;;;5.41;79.87
66945;BME280;53853;51.982;5.928;2022-12-07T03:55:17;101622.06;;;5.46;79.63
66945;BME280;53853;51.982;5.928;2022-12-07T03:57:49;101612.22;;;5.48;79.23
66945;BME280;53853;51.982;5.928;2022-12-07T04:00:21;101615.06;;;5.45;79.37
66945;BME280;53853;51.982;5.928;2022-12-07T04:02:53;101612.31;;;5.47;79.09
66945;BME280;53853;51.982;5.928;2022-12-07T04:05:23;101609.50;;;5.50;78.97
66945;BME280;53853;51.982;5.928;2022-12-07T04:07:53;101611.94;;;5.53;79.09
66945;BME280;53853;51.982;5.928;2022-12-07T04:10:23;101614.78;;;5.50;78.63
66945;BME280;53853;51.982;5.928;2022-12-07T04:12:53;101616.47;;;5.51;78.53
66945;BME280;53853;51.982;5.928;2022-12-07T04:15:22;101608.66;;;5.49;78.47
66945;BME280;53853;51.982;5.928;2022-12-07T04:17:54;101607.97;;;5.45;78.89
66945;BME280;53853;51.982;5.928;2022-12-07T04:20:24;101603.66;;;5.44;79.04
66945;BME280;53853;51.982;5.928;2022-12-07T04:22:53;101605.75;;;5.39;79.10
66945;BME280;53853;51.982;5.928;2022-12-07T04:25:23;101606.69;;;5.38;78.95
66945;BME280;53853;51.982;5.928;2022-12-07T04:27:52;101603.19;;;5.38;78.96
66945;BME280;53853;51.982;5.928;2022-12-07T04:30:22;101602.53;;;5.34;79.04
66945;BME280;53853;51.982;5.928;2022-12-07T04:32:52;101612.16;;;5.35;79.10
66945;BME280;53853;51.982;5.928;2022-12-07T04:35:24;101612.16;;;5.35;79.19
66945;BME280;53853;51.982;5.928;2022-12-07T04:37:53;101609.53;;;5.35;79.38
66945;BME280;53853;51.982;5.928;2022-12-07T04:40:23;101609.41;;;5.37;79.02
66945;BME280;53853;51.982;5.928;2022-12-07T04:42:52;101601.50;;;5.37;78.80
66945;BME280;53853;51.982;5.928;2022-12-07T04:45:22;101609.41;;;5.37;79.06
66945;BME280;53853;51.982;5.928;2022-12-07T04:47:51;101616.50;;;5.36;78.95
66945;BME280;53853;51.982;5.928;2022-12-07T04:50:23;101611.03;;;5.39;79.18
66945;BME280;53853;51.982;5.928;2022-12-07T04:52:53;101600.47;;;5.39;78.64
66945;BME280;53853;51.982;5.928;2022-12-07T04:55:22;101599.59;;;5.39;78.68
66945;BME280;53853;51.982;5.928;2022-12-07T04:57:52;101599.69;;;5.37;78.58
66945;BME280;53853;51.982;5.928;2022-12-07T05:00:21;101592.91;;;5.33;78.70
66945;BME280;53853;51.982;5.928;2022-12-07T05:02:51;101596.50;;;5.32;78.48
66945;BME280;53853;51.982;5.928;2022-12-07T05:05:20;101601.31;;;5.25;77.95
66945;BME280;53853;51.982;5.928;2022-12-07T05:07:53;101598.22;;;5.19;78.01
66945;BME280;53853;51.982;5.928;2022-12-07T05:10:23;101596.16;;;5.10;78.03
66945;BME280;53853;51.982;5.928;2022-12-07T05:12:52;101590.50;;;5.01;78.27
66945;BME280;53853;51.982;5.928;2022-12-07T05:15:22;101594.25;;;4.97;78.13
66945;BME280;53853;51.982;5.928;2022-12-07T05:17:51;101585.22;;;4.87;78.61
66945;BME280;53853;51.982;5.928;2022-12-07T05:20:21;101590.78;;;4.82;78.27
66945;BME280;53853;51.982;5.928;2022-12-07T05:22:53;101595.56;;;4.76;79.16
66945;BME280;53853;51.982;5.928;2022-12-07T05:25:24;101591.53;;;4.70;79.64
66945;BME280;53853;51.982;5.928;2022-12-07T05:27:54;101591.81;;;4.65;79.93
66945;BME280;53853;51.982;5.928;2022-12-07T05:30:24;101592.00;;;4.62;80.64
66945;BME280;53853;51.982;5.928;2022-12-07T05:32:54;101598.28;;;4.60;80.61
66945;BME280;53853;51.982;5.928;2022-12-07T05:35:23;101594.81;;;4.59;80.77
66945;BME280;53853;51.982;5.928;2022-12-07T05:37:55;101601.53;;;4.65;79.93
66945;BME280;53853;51.982;5.928;2022-12-07T05:40:25;101593.50;;;4.66;79.73
66945;BME280;53853;51.982;5.928;2022-12-07T05:42:54;101604.06;;;4.66;79.65
66945;BME280;53853;51.982;5.928;2022-12-07T05:45:24;101588.97;;;4.68;79.64
66945;BME280;53853;51.982;5.928;2022-12-07T05:47:53;101596.25;;;4.65;80.15
66945;BME280;53853;51.982;5.928;2022-12-07T05:50:23;101587.28;;;4.67;79.72
66945;BME280;53853;51.982;5.928;2022-12-07T05:53:03;101588.22;;;4.66;79.61
66945;BME280;53853;51.982;5.928;2022-12-07T05:55:32;101589.44;;;4.61;79.43
66945;BME280;53853;51.982;5.928;2022-12-07T05:58:02;101601.13;;;4.57;79.53
66945;BME280;53853;51.982;5.928;2022-12-07T06:00:44;101592.44;;;4.54;79.28
66945;BME280;53853;51.982;5.928;2022-12-07T06:03:13;101586.59;;;4.49;79.33
66945;BME280;53853;51.982;5.928;2022-12-07T06:05:43;101591.31;;;4.44;79.40
66945;BME280;53853;51.982;5.928;2022-12-07T06:08:15;101586.31;;;4.40;79.63
66945;BME280;53853;51.982;5.928;2022-12-07T06:10:44;101585.53;;;4.38;79.65
66945;BME280;53853;51.982;5.928;2022-12-07T06:13:35;101588.56;;;4.31;80.42
66945;BME280;53853;51.982;5.928;2022-12-07T06:16:02;101588.75;;;4.28;80.68
66945;BME280;53853;51.982;5.928;2022-12-07T06:18:32;101592.31;;;4.27;80.14
66945;BME280;53853;51.982;5.928;2022-12-07T06:21:02;101590.59;;;4.26;80.23
66945;BME280;53853;51.982;5.928;2022-12-07T06:23:34;101591.47;;;4.27;79.76
66945;BME280;53853;51.982;5.928;2022-12-07T06:26:03;101590.88;;;4.22;80.11
66945;BME280;53853;51.982;5.928;2022-12-07T06:28:33;101586.63;;;4.19;80.69
66945;BME280;53853;51.982;5.928;2022-12-07T06:31:03;101592.84;;;4.18;80.91
66945;BME280;53853;51.982;5.928;2022-12-07T06:33:32;101592.84;;;4.18;80.29
66945;BME280;53853;51.982;5.928;2022-12-07T06:36:02;101585.00;;;4.16;79.94
66945;BME280;53853;51.982;5.928;2022-12-07T06:38:34;101593.84;;;4.15;80.18
66945;BME280;53853;51.982;5.928;2022-12-07T06:41:04;101592.25;;;4.13;80.19
66945;BME280;53853;51.982;5.928;2022-12-07T06:43:33;101589.81;;;4.10;80.24
66945;BME280;53853;51.982;5.928;2022-12-07T06:46:03;101594.25;;;4.09;80.18
66945;BME280;53853;51.982;5.928;2022-12-07T06:48:33;101593.47;;;4.07;80.51
66945;BME280;53853;51.982;5.928;2022-12-07T06:51:02;101592.63;;;4.07;80.63
66945;BME280;53853;51.982;5.928;2022-12-07T06:53:35;101596.09;;;4.07;80.73
66945;BME280;53853;51.982;5.928;2022-12-07T06:56:05;101594.41;;;4.06;80.80
66945;BME280;53853;51.982;5.928;2022-12-07T06:58:34;101593.56;;;4.06;80.93
66945;BME280;53853;51.982;5.928;2022-12-07T07:01:08;101598.66;;;4.09;81.00
66945;BME280;53853;51.982;5.928;2022-12-07T07:03:37;101598.66;;;4.09;80.91
66945;BME280;53853;51.982;5.928;2022-12-07T07:06:07;101596.88;;;4.09;80.98
66945;BME280;53853;51.982;5.928;2022-12-07T07:08:39;101595.91;;;4.10;80.79
66945;BME280;53853;51.982;5.928;2022-12-07T07:11:09;101602.72;;;4.14;80.55
66945;BME280;53853;51.982;5.928;2022-12-07T07:13:38;101598.28;;;4.15;80.57
66945;BME280;53853;51.982;5.928;2022-12-07T07:16:08;101598.13;;;4.18;80.52
66945;BME280;53853;51.982;5.928;2022-12-07T07:18:38;101598.13;;;4.18;80.66
66945;BME280;53853;51.982;5.928;2022-12-07T07:21:07;101599.81;;;4.19;80.82
66945;BME280;53853;51.982;5.928;2022-12-07T07:23:39;101604.06;;;4.22;80.42
66945;BME280;53853;51.982;5.928;2022-12-07T07:26:09;101598.03;;;4.20;80.25
66945;BME280;53853;51.982;5.928;2022-12-07T07:28:38;101603.31;;;4.20;80.31
66945;BME280;53853;51.982;5.928;2022-12-07T07:31:08;101605.00;;;4.21;79.98
66945;BME280;53853;51.982;5.928;2022-12-07T07:33:37;101608.59;;;4.20;79.88
66945;BME280;53853;51.982;5.928;2022-12-07T07:36:07;101608.75;;;4.16;79.59
66945;BME280;53853;51.982;5.928;2022-12-07T07:38:39;101603.75;;;4.12;79.62
66945;BME280;53853;51.982;5.928;2022-12-07T07:41:09;101599.53;;;4.09;79.76
66945;BME280;53853;51.982;5.928;2022-12-07T07:43:38;101611.09;;;4.07;79.70
66945;BME280;53853;51.982;5.928;2022-12-07T07:46:08;101613.81;;;4.05;79.79
66945;BME280;53853;51.982;5.928;2022-12-07T07:48:37;101612.00;;;4.06;80.14
66945;BME280;53853;51.982;5.928;2022-12-07T07:51:07;101603.09;;;4.08;79.99
66945;BME280;53853;51.982;5.928;2022-12-07T07:53:40;101603.91;;;4.09;79.96
66945;BME280;53853;51.982;5.928;2022-12-07T07:56:09;101612.53;;;4.12;79.99
66945;BME280;53853;51.982;5.928;2022-12-07T07:58:38;101605.47;;;4.13;80.04
66945;BME280;53853;51.982;5.928;2022-12-07T08:01:08;101602.81;;;4.13;80.43
66945;BME280;53853;51.982;5.928;2022-12-07T08:03:40;101610.66;;;4.14;80.15
66945;BME280;53853;51.982;5.928;2022-12-07T08:06:09;101606.97;;;4.17;80.07
66945;BME280;53853;51.982;5.928;2022-12-07T08:08:41;101606.78;;;4.20;80.18
66945;BME280;53853;51.982;5.928;2022-12-07T08:11:11;101614.59;;;4.22;80.23
66945;BME280;53853;51.982;5.928;2022-12-07T08:13:41;101612.66;;;4.25;80.21
66945;BME280;53853;51.982;5.928;2022-12-07T08:16:10;101614.06;;;4.31;80.26
66945;BME280;53853;51.982;5.928;2022-12-07T08:18:41;101614.56;;;4.38;80.41
66945;BME280;53853;51.982;5.928;2022-12-07T08:21:12;101618.47;;;4.46;80.65
66945;BME280;53853;51.982;5.928;2022-12-07T08:23:44;101622.13;;;4.58;80.78
66945;BME280;53853;51.982;5.928;2022-12-07T08:26:14;101631.22;;;4.68;80.54
66945;BME280;53853;51.982;5.928;2022-12-07T08:28:44;101641.16;;;4.79;80.15
66945;BME280;53853;51.982;5.928;2022-12-07T08:31:15;101639.53;;;4.91;80.00
66945;BME280;53853;51.982;5.928;2022-12-07T08:33:45;101635.41;;;5.01;79.67
66945;BME280;53853;51.982;5.928;2022-12-07T08:36:15;101637.38;;;5.12;79.63
66945;BME280;53853;51.982;5.928;2022-12-07T08:38:47;101639.72;;;5.17;79.80
66945;BME280;53853;51.982;5.928;2022-12-07T08:41:17;101634.94;;;5.23;79.80
66945;BME280;53853;51.982;5.928;2022-12-07T08:43:47;101631.88;;;5.30;79.80
66945;BME280;53853;51.982;5.928;2022-12-07T08:46:17;101615.53;;;5.37;79.67
66945;BME280;53853;51.982;5.928;2022-12-07T08:48:49;101622.16;;;5.44;79.65
66945;BME280;53853;51.982;5.928;2022-12-07T08:51:19;101621.97;;;5.48;79.77
66945;BME280;53853;51.982;5.928;2022-12-07T08:53:51;101628.84;;;5.50;79.34
66945;BME280;53853;51.982;5.928;2022-12-07T08:56:21;101621.97;;;5.48;79.53
66945;BME280;53853;51.982;5.928;2022-12-07T08:58:51;101623.75;;;5.47;79.24
66945;BME280;53853;51.982;5.928;2022-12-07T09:01:21;101625.63;;;5.45;79.52
66945;BME280;53853;51.982;5.928;2022-12-07T09:03:50;101623.09;;;5.43;79.55
66945;BME280;53853;51.982;5.928;2022-12-07T09:06:20;101626.59;;;5.44;79.36
66945;BME280;53853;51.982;5.928;2022-12-07T09:08:53;101634.22;;;5.49;79.61
66945;BME280;53853;51.982;5.928;2022-12-07T09:11:23;101627.41;;;5.59;79.78
66945;BME280;53853;51.982;5.928;2022-12-07T09:13:53;101626.81;;;5.68;79.30
66945;BME280;53853;51.982;5.928;2022-12-07T09:16:22;101631.72;;;5.74;79.54
66945;BME280;53853;51.982;5.928;2022-12-07T09:18:52;101630.28;;;5.83;79.43
66945;BME280;53853;51.982;5.928;2022-12-07T09:21:22;101632.72;;;5.86;79.01
66945;BME280;53853;51.982;5.928;2022-12-07T09:23:54;101632.31;;;5.92;78.90
66945;BME280;53853;51.982;5.928;2022-12-07T09:26:23;101635.59;;;5.96;78.69
66945;BME280;53853;51.982;5.928;2022-12-07T09:28:53;101631.03;;;6.00;78.49
66945;BME280;53853;51.982;5.928;2022-12-07T09:31:22;101629.09;;;6.02;77.74
66945;BME280;53853;51.982;5.928;2022-12-07T09:33:53;101628.81;;;6.06;77.88
66945;BME280;53853;51.982;5.928;2022-12-07T09:36:23;101638.22;;;6.10;77.69
66945;BME280;53853;51.982;5.928;2022-12-07T09:38:55;101621.00;;;6.18;77.60
66945;BME280;53853;51.982;5.928;2022-12-07T09:41:25;101631.38;;;6.21;77.26
66945;BME280;53853;51.982;5.928;2022-12-07T09:43:57;101618.69;;;6.26;77.38
66945;BME280;53853;51.982;5.928;2022-12-07T09:46:27;101620.00;;;6.33;77.32
66945;BME280;53853;51.982;5.928;2022-12-07T09:48:58;101625.06;;;6.36;77.06
66945;BME280;53853;51.982;5.928;2022-12-07T09:51:27;101622.00;;;6.42;77.20
66945;BME280;53853;51.982;5.928;2022-12-07T09:53:59;101616.50;;;6.45;76.92
66945;BME280;53853;51.982;5.928;2022-12-07T09:56:29;101614.31;;;6.52;77.10
66945;BME280;53853;51.982;5.928;2022-12-07T09:59:00;101616.75;;;6.55;77.09
66945;BME280;53853;51.982;5.928;2022-12-07T10:01:30;101612.19;;;6.57;76.75
66945;BME280;53853;51.982;5.928;2022-12-07T10:04:02;101607.00;;;6.56;76.44
66945;BME280;53853;51.982;5.928;2022-12-07T10:06:35;101615.56;;;6.59;76.49
66945;BME280;53853;51.982;5.928;2022-12-07T10:09:11;101612.81;;;6.61;76.63
66945;BME280;53853;51.982;5.928;2022-12-07T10:14:25;101606.78;;;6.59;75.66
66945;BME280;53853;51.982;5.928;2022-12-07T10:16:56;101611.53;;;6.53;75.40
66945;BME280;53853;51.982;5.928;2022-12-07T10:19:26;101606.88;;;6.57;74.97
66945;BME280;53853;51.982;5.928;2022-12-07T10:22:00;101604.34;;;6.56;75.33
66945;BME280;53853;51.982;5.928;2022-12-07T10:24:32;101609.44;;;6.59;75.39
66945;BME280;53853;51.982;5.928;2022-12-07T10:27:03;101607.72;;;6.58;75.18
66945;BME280;53853;51.982;5.928;2022-12-07T10:29:34;101597.13;;;6.58;74.99
66945;BME280;53853;51.982;5.928;2022-12-07T10:32:06;101591.50;;;6.49;74.85
66945;BME280;53853;51.982;5.928;2022-12-07T10:34:37;101585.47;;;6.47;74.99
66945;BME280;53853;51.982;5.928;2022-12-07T10:37:14;101586.22;;;6.49;75.21
66945;BME280;53853;51.982;5.928;2022-12-07T10:39:47;101580.81;;;6.51;75.29
66945;BME280;53853;51.982;5.928;2022-12-07T10:42:18;101577.22;;;6.52;75.38
66945;BME280;53853;51.982;5.928;2022-12-07T10:44:48;101575.94;;;6.58;75.47
66945;BME280;53853;51.982;5.928;2022-12-07T10:47:25;101572.75;;;6.65;75.37
66945;BME280;53853;51.982;5.928;2022-12-07T10:52:54;101569.69;;;6.84;74.43
66945;BME280;53853;51.982;5.928;2022-12-07T10:55:33;101573.25;;;6.96;74.74
66945;BME280;53853;51.982;5.928;2022-12-07T10:58:12;101566.25;;;7.08;74.25
66945;BME280;53853;51.982;5.928;2022-12-07T11:00:49;101567.75;;;7.12;73.27
66945;BME280;53853;51.982;5.928;2022-12-07T11:03:30;101568.16;;;7.19;73.90
66945;BME280;53853;51.982;5.928;2022-12-07T11:06:06;101567.94;;;7.22;74.02
66945;BME280;53853;51.982;5.928;2022-12-07T11:08:44;101560.19;;;7.19;72.99
66945;BME280;53853;51.982;5.928;2022-12-07T11:11:25;101555.00;;;7.17;72.78
66945;BME280;53853;51.982;5.928;2022-12-07T11:13:59;101554.72;;;7.09;72.17
66945;BME280;53853;51.982;5.928;2022-12-07T11:16:34;101554.94;;;7.06;72.13
66945;BME280;53853;51.982;5.928;2022-12-07T11:19:15;101554.16;;;7.04;72.07
66945;BME280;53853;51.982;5.928;2022-12-07T11:21:48;101551.63;;;7.02;72.15
66945;BME280;53853;51.982;5.928;2022-12-07T11:24:24;101544.00;;;6.98;72.38
66945;BME280;53853;51.982;5.928;2022-12-07T11:27:05;101539.69;;;6.97;72.79
66945;BME280;53853;51.982;5.928;2022-12-07T11:29:43;101542.31;;;6.97;72.60
66945;BME280;53853;51.982;5.928;2022-12-07T11:32:17;101534.28;;;6.98;72.74
66945;BME280;53853;51.982;5.928;2022-12-07T11:34:54;101535.63;;;7.04;72.45
66945;BME280;53853;51.982;5.928;2022-12-07T11:37:29;101529.47;;;7.03;72.83
66945;BME280;53853;51.982;5.928;2022-12-07T11:40:00;101531.81;;;7.08;72.88
66945;BME280;53853;51.982;5.928;2022-12-07T11:42:35;101526.91;;;7.15;73.15
66945;BME280;53853;51.982;5.928;2022-12-07T11:45:10;101524.75;;;7.20;72.71
66945;BME280;53853;51.982;5.928;2022-12-07T11:47:45;101519.22;;;7.23;72.09
66945;BME280;53853;51.982;5.928;2022-12-07T11:50:26;101520.81;;;7.25;72.56
66945;BME280;53853;51.982;5.928;2022-12-07T11:52:58;101520.50;;;7.30;72.80
66945;BME280;53853;51.982;5.928;2022-12-07T11:55:29;101520.38;;;7.32;72.60
66945;BME280;53853;51.982;5.928;2022-12-07T11:58:04;101515.81;;;7.34;72.79
66945;BME280;53853;51.982;5.928;2022-12-07T12:00:34;101515.59;;;7.37;72.97
66945;BME280;53853;51.982;5.928;2022-12-07T12:03:07;101510.28;;;7.37;72.74
66945;BME280;53853;51.982;5.928;2022-12-07T12:05:40;101506.78;;;7.36;72.83
66945;BME280;53853;51.982;5.928;2022-12-07T12:08:12;101506.03;;;7.34;72.98
66945;BME280;53853;51.982;5.928;2022-12-07T12:10:48;101502.66;;;7.32;73.22
66945;BME280;53853;51.982;5.928;2022-12-07T12:16:35;101502.06;;;7.29;72.54
66945;BME280;53853;51.982;5.928;2022-12-07T12:19:11;101496.97;;;7.25;72.82
66945;BME280;53853;51.982;5.928;2022-12-07T12:21:47;101495.03;;;7.28;72.73
66945;BME280;53853;51.982;5.928;2022-12-07T12:24:23;101491.22;;;7.32;72.61
66945;BME280;53853;51.982;5.928;2022-12-07T12:26:57;101495.63;;;7.44;71.72
66945;BME280;53853;51.982;5.928;2022-12-07T12:29:30;101484.47;;;7.52;71.05
66945;BME280;53853;51.982;5.928;2022-12-07T12:32:07;101478.06;;;7.54;70.78
66945;BME280;53853;51.982;5.928;2022-12-07T12:34:41;101482.41;;;7.55;70.63
66945;BME280;53853;51.982;5.928;2022-12-07T12:42:43;101479.56;;;7.70;70.65
66945;BME280;53853;51.982;5.928;2022-12-07T12:45:18;101480.31;;;7.83;70.21
66945;BME280;53853;51.982;5.928;2022-12-07T12:47:55;101481.34;;;7.93;69.72
66945;BME280;53853;51.982;5.928;2022-12-07T12:50:25;101472.56;;;8.04;70.19
66945;BME280;53853;51.982;5.928;2022-12-07T12:52:57;101463.75;;;8.15;69.47
66945;BME280;53853;51.982;5.928;2022-12-07T12:55:29;101457.97;;;8.21;70.51
66945;BME280;53853;51.982;5.928;2022-12-07T13:03:53;101454.13;;;8.25;68.90
66945;BME280;53853;51.982;5.928;2022-12-07T13:06:32;101448.09;;;8.23;69.31
66945;BME280;53853;51.982;5.928;2022-12-07T13:09:04;101441.31;;;8.19;69.17
66945;BME280;53853;51.982;5.928;2022-12-07T13:11:45;101446.75;;;8.18;68.53
66945;BME280;53853;51.982;5.928;2022-12-07T13:16:59;101433.81;;;8.13;68.71
66945;BME280;53853;51.982;5.928;2022-12-07T13:25:18;101429.97;;;8.17;69.48
66945;BME280;53853;51.982;5.928;2022-12-07T13:27:50;101435.75;;;8.22;69.30
66945;BME280;53853;51.982;5.928;2022-12-07T13:30:21;101432.88;;;8.25;69.10
66945;BME280;53853;51.982;5.928;2022-12-07T13:32:51;101419.47;;;8.27;69.51
66945;BME280;53853;51.982;5.928;2022-12-07T13:35:28;101421.28;;;8.26;69.47
66945;BME280;53853;51.982;5.928;2022-12-07T13:37:58;101417.28;;;8.21;69.61
66945;BME280;53853;51.982;5.928;2022-12-07T13:40:30;101412.09;;;8.19;69.48
66945;BME280;53853;51.982;5.928;2022-12-07T13:43:00;101407.50;;;8.21;69.81
66945;BME280;53853;51.982;5.928;2022-12-07T13:45:32;101397.63;;;8.23;69.94
66945;BME280;53853;51.982;5.928;2022-12-07T13:48:20;101396.06;;;8.32;69.58
66945;BME280;53853;51.982;5.928;2022-12-07T13:50:54;101399.06;;;8.39;68.87
66945;BME280;53853;51.982;5.928;2022-12-07T13:53:24;101406.06;;;8.40;69.09